Fantasia — ICJY — position and weather

sailwx.info

Track history (hours):
 
Tides and Currents Weather Stations Pressure Air Temp Water Temp Dewpoint Dewpoint Depression Visibility Wind Speed Wind Dir Waves Ship Positions

Fantasia

Last reported at 2016-Aug-30 10:32 UTC. Time now 2016-Aug-30 10:49 UTC.
Position N 09°31' W 013°43'.

Length 183 m; draft 10.3 m.

Type: Ship (hazmat cat B). MMSI: 247279600.

Date/timePositionNaut miles runAvg speedWind from/ knotsBaromVisibWave heightAir tempDewpointWater temp
2016-Aug-30 10:32N 09°31' W 013°43'0 0.0
2016-Aug-30 09:29N 09°31' W 013°43'0 0.0
2016-Aug-30 08:32N 09°31' W 013°43'0 0.0
2016-Aug-30 04:08N 09°31' W 013°43'0 0.0
2016-Aug-30 03:32N 09°31' W 013°43'0 0.0
2016-Aug-30 02:32N 09°31' W 013°43'0 0.0
2016-Aug-30 01:32N 09°31' W 013°43'0 0.0
2016-Aug-30 00:32N 09°31' W 013°43'0 0.0
2016-Aug-29 23:32N 09°31' W 013°43'0 0.0
2016-Aug-29 14:32N 09°31' W 013°43'0 0.0
2016-Aug-29 13:32N 09°31' W 013°43'0 0.0
2016-Aug-29 12:32N 09°31' W 013°43'0 0.0
2016-Aug-29 11:32N 09°31' W 013°43'0 0.0
2016-Aug-29 09:29N 09°31' W 013°43'0 0.0
2016-Aug-29 08:32N 09°31' W 013°43'0 0.0
2016-Aug-29 07:32N 09°31' W 013°43'0 0.0
2016-Aug-29 06:32N 09°31' W 013°43'0 0.0
2016-Aug-29 05:32N 09°31' W 013°43'0 0.0
2016-Aug-29 04:32N 09°31' W 013°43'0 0.0
2016-Aug-29 03:32N 09°31' W 013°43'0 0.0
2016-Aug-29 02:32N 09°31' W 013°43'0 0.0
2016-Aug-29 01:32N 09°31' W 013°43'0 0.0
2016-Aug-29 00:32N 09°31' W 013°43'0 0.0
2016-Aug-28 23:32N 09°31' W 013°43'0 0.0
2016-Aug-28 22:32N 09°31' W 013°43'0 0.0
2016-Aug-28 21:32N 09°31' W 013°43'0 0.0
2016-Aug-28 20:32N 09°31' W 013°43'0 0.0
2016-Aug-28 19:32N 09°31' W 013°43'0 0.2
2016-Aug-28 18:33N 09°31' W 013°43'5 4.6
2016-Aug-28 17:34N 09°27' W 013°43'7 7.2
2016-Aug-28 16:33N 09°22' W 013°49'1414.0
2016-Aug-28 15:33N 09°19' W 014°03'1413.8
2016-Aug-28 14:33N 09°23' W 014°16'1313.1
2016-Aug-28 13:33N 09°27' W 014°29'1513.1
2016-Aug-28 12:24N 09°31' W 014°44'  
2016-Aug-24 23:08N 27°03' W 015°27'1115.7
2016-Aug-24 22:27N 27°13' W 015°23'2015.9
2016-Aug-24 21:13N 27°31' W 015°15'1015.7
2016-Aug-24 20:34N 27°41' W 015°11'1615.9
2016-Aug-24 19:34N 27°56' W 015°05'1515.4
2016-Aug-24 18:34N 28°10' W 014°59'1515.1
2016-Aug-24 17:33N 28°25' W 014°54'1515.2
2016-Aug-24 16:33N 28°39' W 014°50'1514.8
2016-Aug-24 15:33N 28°54' W 014°46'1514.9
2016-Aug-24 14:34N 29°08' W 014°42'1514.9
2016-Aug-24 13:33N 29°23' W 014°38'1414.5
2016-Aug-24 12:33N 29°37' W 014°34'1514.5
2016-Aug-24 11:30N 29°52' W 014°30'1414.3
2016-Aug-24 10:32N 30°05' W 014°26'1414.4
2016-Aug-24 09:33N 30°19' W 014°23'1514.8
2016-Aug-24 08:33N 30°33' W 014°18'1414.5
2016-Aug-24 07:34N 30°47' W 014°15'1514.8
2016-Aug-24 06:32N 31°02' W 014°11'3215.1
2016-Aug-24 04:24N 31°34' W 014°02'1315.4
2016-Aug-24 03:33N 31°46' W 013°58'1515.2
2016-Aug-24 02:33N 32°01' W 013°55'1615.2
2016-Aug-24 01:32N 32°16' W 013°51'2015.2
2016-Aug-24 00:13N 32°35' W 013°45'2715.1
2016-Aug-23 22:28N 33°01' W 013°37'16815.1
2016-Aug-23 11:22N 35°44' W 012°50'1215.3
2016-Aug-23 10:33N 35°56' W 012°46'1515.2
2016-Aug-23 09:33N 36°11' W 012°42'1515.4
2016-Aug-23 08:33N 36°26' W 012°38'1514.8
2016-Aug-23 07:33N 36°41' W 012°33'1514.8
2016-Aug-23 06:34N 36°55' W 012°29'1515.1
2016-Aug-23 05:33N 37°10' W 012°25'1515.0
2016-Aug-23 04:33N 37°24' W 012°21'1514.8
2016-Aug-23 03:33N 37°39' W 012°16'1514.8
2016-Aug-23 02:33N 37°53' W 012°12'1414.5
2016-Aug-23 01:33N 38°07' W 012°07'1514.4
2016-Aug-23 00:33N 38°21' W 012°03'1414.7
2016-Aug-22 23:33N 38°35' W 011°59'1414.4
2016-Aug-22 22:34N 38°49' W 011°55'1514.6
2016-Aug-22 21:33N 39°03' W 011°50'1514.8
2016-Aug-22 20:33N 39°18' W 011°46'1313.6
2016-Aug-22 19:34N 39°31' W 011°42'1414.0
2016-Aug-22 18:33N 39°45' W 011°38'1414.1
2016-Aug-22 17:33N 39°58' W 011°33'1514.1
2016-Aug-22 16:31N 40°12' W 011°29'1713.5
2016-Aug-22 15:15N 40°29' W 011°24'18013.7
2016-Aug-22 02:06N 43°25' W 010°27'814.1
2016-Aug-22 01:31N 43°33' W 010°25'  
Track history (hours):
 
Tides and Currents Weather Stations Pressure Air Temp Water Temp Dewpoint Dewpoint Depression Visibility Wind Speed Wind Dir Waves Ship Positions

Fantasia

Last reported at 2016-Aug-30 10:32 UTC. Time now 2016-Aug-30 10:49 UTC.
Position N 09°31' W 013°43'.

Length 183 m; draft 10.3 m.

Type: Ship (hazmat cat B). MMSI: 247279600.

Date/timePositionNaut miles runAvg speedWind from/ knotsBaromVisibWave heightAir tempDewpointWater temp
2016-Aug-30 10:32N 09°31' W 013°43'0 0.0
2016-Aug-30 09:29N 09°31' W 013°43'0 0.0
2016-Aug-30 08:32N 09°31' W 013°43'0 0.0
2016-Aug-30 04:08N 09°31' W 013°43'0 0.0
2016-Aug-30 03:32N 09°31' W 013°43'0 0.0
2016-Aug-30 02:32N 09°31' W 013°43'0 0.0
2016-Aug-30 01:32N 09°31' W 013°43'0 0.0
2016-Aug-30 00:32N 09°31' W 013°43'0 0.0
2016-Aug-29 23:32N 09°31' W 013°43'0 0.0
2016-Aug-29 14:32N 09°31' W 013°43'0 0.0
2016-Aug-29 13:32N 09°31' W 013°43'0 0.0
2016-Aug-29 12:32N 09°31' W 013°43'0 0.0
2016-Aug-29 11:32N 09°31' W 013°43'0 0.0
2016-Aug-29 09:29N 09°31' W 013°43'0 0.0
2016-Aug-29 08:32N 09°31' W 013°43'0 0.0
2016-Aug-29 07:32N 09°31' W 013°43'0 0.0
2016-Aug-29 06:32N 09°31' W 013°43'0 0.0
2016-Aug-29 05:32N 09°31' W 013°43'0 0.0
2016-Aug-29 04:32N 09°31' W 013°43'0 0.0
2016-Aug-29 03:32N 09°31' W 013°43'0 0.0
2016-Aug-29 02:32N 09°31' W 013°43'0 0.0
2016-Aug-29 01:32N 09°31' W 013°43'0 0.0
2016-Aug-29 00:32N 09°31' W 013°43'0 0.0
2016-Aug-28 23:32N 09°31' W 013°43'0 0.0
2016-Aug-28 22:32N 09°31' W 013°43'0 0.0
2016-Aug-28 21:32N 09°31' W 013°43'0 0.0
2016-Aug-28 20:32N 09°31' W 013°43'0 0.0
2016-Aug-28 19:32N 09°31' W 013°43'0 0.2
2016-Aug-28 18:33N 09°31' W 013°43'5 4.6
2016-Aug-28 17:34N 09°27' W 013°43'7 7.2
2016-Aug-28 16:33N 09°22' W 013°49'1414.0
2016-Aug-28 15:33N 09°19' W 014°03'1413.8
2016-Aug-28 14:33N 09°23' W 014°16'1313.1
2016-Aug-28 13:33N 09°27' W 014°29'1513.1
2016-Aug-28 12:24N 09°31' W 014°44'  
2016-Aug-24 23:08N 27°03' W 015°27'1115.7
2016-Aug-24 22:27N 27°13' W 015°23'2015.9
2016-Aug-24 21:13N 27°31' W 015°15'1015.7
2016-Aug-24 20:34N 27°41' W 015°11'1615.9
2016-Aug-24 19:34N 27°56' W 015°05'1515.4
2016-Aug-24 18:34N 28°10' W 014°59'1515.1
2016-Aug-24 17:33N 28°25' W 014°54'1515.2
2016-Aug-24 16:33N 28°39' W 014°50'1514.8
2016-Aug-24 15:33N 28°54' W 014°46'1514.9
2016-Aug-24 14:34N 29°08' W 014°42'1514.9
2016-Aug-24 13:33N 29°23' W 014°38'1414.5
2016-Aug-24 12:33N 29°37' W 014°34'1514.5
2016-Aug-24 11:30N 29°52' W 014°30'1414.3
2016-Aug-24 10:32N 30°05' W 014°26'1414.4
2016-Aug-24 09:33N 30°19' W 014°23'1514.8
2016-Aug-24 08:33N 30°33' W 014°18'1414.5
2016-Aug-24 07:34N 30°47' W 014°15'1514.8
2016-Aug-24 06:32N 31°02' W 014°11'3215.1
2016-Aug-24 04:24N 31°34' W 014°02'1315.4
2016-Aug-24 03:33N 31°46' W 013°58'1515.2
2016-Aug-24 02:33N 32°01' W 013°55'1615.2
2016-Aug-24 01:32N 32°16' W 013°51'2015.2
2016-Aug-24 00:13N 32°35' W 013°45'2715.1
2016-Aug-23 22:28N 33°01' W 013°37'16815.1
2016-Aug-23 11:22N 35°44' W 012°50'1215.3
2016-Aug-23 10:33N 35°56' W 012°46'1515.2
2016-Aug-23 09:33N 36°11' W 012°42'1515.4
2016-Aug-23 08:33N 36°26' W 012°38'1514.8
2016-Aug-23 07:33N 36°41' W 012°33'1514.8
2016-Aug-23 06:34N 36°55' W 012°29'1515.1
2016-Aug-23 05:33N 37°10' W 012°25'1515.0
2016-Aug-23 04:33N 37°24' W 012°21'1514.8
2016-Aug-23 03:33N 37°39' W 012°16'1514.8
2016-Aug-23 02:33N 37°53' W 012°12'1414.5
2016-Aug-23 01:33N 38°07' W 012°07'1514.4
2016-Aug-23 00:33N 38°21' W 012°03'1414.7
2016-Aug-22 23:33N 38°35' W 011°59'1414.4
2016-Aug-22 22:34N 38°49' W 011°55'1514.6
2016-Aug-22 21:33N 39°03' W 011°50'1514.8
2016-Aug-22 20:33N 39°18' W 011°46'1313.6
2016-Aug-22 19:34N 39°31' W 011°42'1414.0
2016-Aug-22 18:33N 39°45' W 011°38'1414.1
2016-Aug-22 17:33N 39°58' W 011°33'1514.1
2016-Aug-22 16:31N 40°12' W 011°29'1713.5
2016-Aug-22 15:15N 40°29' W 011°24'18013.7
2016-Aug-22 02:06N 43°25' W 010°27'814.1
2016-Aug-22 01:31N 43°33' W 010°25'  

Dump ship's entire track history